Time;durP1;ratioP1;P1;durP2;ratioP2;P2;SDS_P1;SDS_P2;PMS_P1;PMS_P2;Temp;Humidity;BMP_temperature;BMP_pressure;BME280_temperature;BME280_humidity;BME280_pressure;Samples;Min_cycle;Max_cycle;Signal;HPM_P1;HPM_P2
2023/05/22 00:00:24;;;;;;;40.47;17.30;;;;;;;12.22;97.34;101840.19;6100850;19;20007;-79
2023/05/22 00:02:30;;;;;;;39.42;17.58;;;;;;;12.22;97.14;101833.13;6097410;19;20002;-79
2023/05/22 00:04:41;;;;;;;41.03;18.83;;;;;;;12.21;96.71;101831.41;6096232;19;20017;-79
2023/05/22 00:06:47;;;;;;;45.58;19.00;;;;;;;12.22;96.85;101832.28;6094511;19;20527;-78
2023/05/22 00:08:57;;;;;;;42.25;18.70;;;;;;;12.21;97.14;101828.75;6091782;19;20017;-78
2023/05/22 00:11:04;;;;;;;46.92;18.95;;;;;;;12.20;97.11;101827.06;6098647;19;20384;-78
2023/05/22 00:13:10;;;;;;;44.47;19.33;;;;;;;12.18;97.38;101834.13;6093227;19;20022;-79
2023/05/22 00:15:16;;;;;;;45.22;18.60;;;;;;;12.18;97.08;101828.88;6096147;19;20007;-78
2023/05/22 00:17:26;;;;;;;43.90;20.00;;;;;;;12.18;97.21;101823.59;6092080;19;20042;-79
2023/05/22 00:19:32;;;;;;;41.90;17.05;;;;;;;12.19;97.26;101824.44;6101170;19;20022;-79
2023/05/22 00:21:39;;;;;;;37.65;17.05;;;;;;;12.16;97.66;101822.78;6101993;19;20051;-79
2023/05/22 00:23:47;;;;;;;50.53;19.75;;;;;;;12.18;97.16;101826.22;6110097;19;20003;-80
2023/05/22 00:25:55;;;;;;;41.90;19.35;;;;;;;12.16;97.58;101819.28;6112229;19;20059;-80
2023/05/22 00:28:01;;;;;;;39.58;17.00;;;;;;;12.19;97.18;101821.81;6110869;19;20013;-79
2023/05/22 00:30:09;;;;;;;35.97;18.67;;;;;;;12.21;96.96;101815.59;6103483;19;20006;-79
2023/05/22 00:32:14;;;;;;;44.22;18.42;;;;;;;12.17;97.71;101813.97;6111772;19;20021;-79
2023/05/22 00:34:30;;;;;;;35.78;17.75;;;;;;;12.16;97.34;101817.50;6108064;19;20039;-78
2023/05/22 00:36:35;;;;;;;51.55;19.80;;;;;;;12.15;97.32;101805.25;6106335;19;20221;-80
2023/05/22 00:38:47;;;;;;;42.90;18.75;;;;;;;12.12;97.77;101813.25;6104980;19;19998;-78
2023/05/22 00:41:04;;;;;;;45.25;19.83;;;;;;;12.15;97.92;101821.06;6104198;19;20033;-78
2023/05/22 00:43:09;;;;;;;45.63;17.85;;;;;;;12.14;97.40;101815.81;6107769;19;20030;-78
2023/05/22 00:45:16;;;;;;;40.63;17.23;;;;;;;12.15;97.58;101809.66;6110530;19;20010;-78
2023/05/22 00:47:23;;;;;;;41.72;20.40;;;;;;;12.07;98.53;101809.91;6111048;19;20010;-79
2023/05/22 00:49:32;;;;;;;46.45;18.27;;;;;;;12.10;97.93;101820.34;6103484;19;20010;-78
2023/05/22 00:51:38;;;;;;;66.70;20.05;;;;;;;12.15;98.08;101818.41;6111805;19;20230;-79
2023/05/22 00:53:55;;;;;;;42.50;18.02;;;;;;;12.19;97.68;101809.53;6103609;19;20093;-78
2023/05/22 00:56:02;;;;;;;42.30;19.85;;;;;;;12.19;97.86;101817.44;6108180;19;20562;-78
2023/05/22 00:58:16;;;;;;;48.63;20.40;;;;;;;12.19;97.95;101809.53;6109367;19;20464;-78
2023/05/22 01:00:27;;;;;;;45.90;19.27;;;;;;;12.14;98.10;101803.53;6105374;19;21084;-78
2023/05/22 01:02:35;;;;;;;40.08;19.30;;;;;;;12.15;98.27;101802.63;6105555;19;20014;-77
2023/05/22 01:04:47;;;;;;;49.08;20.23;;;;;;;12.17;98.53;101806.06;6101986;19;20108;-79
2023/05/22 01:06:57;;;;;;;43.70;19.17;;;;;;;12.18;98.24;101801.66;6105892;19;20020;-79
2023/05/22 01:09:06;;;;;;;49.42;20.20;;;;;;;12.18;98.09;101793.75;6102792;19;20018;-79
2023/05/22 01:11:16;;;;;;;49.85;20.05;;;;;;;12.15;98.13;101794.72;6106993;19;20043;-79
2023/05/22 01:13:31;;;;;;;38.95;17.88;;;;;;;12.16;97.90;101785.88;6107828;19;20006;-79
2023/05/22 01:15:45;;;;;;;46.10;19.10;;;;;;;12.12;98.31;101779.00;6098504;19;20431;-78
2023/05/22 01:18:04;;;;;;;48.47;22.05;;;;;;;12.14;98.42;101789.47;6093654;19;20010;-78
2023/05/22 01:20:24;;;;;;;46.95;20.52;;;;;;;12.21;98.28;101797.13;6106959;19;20002;-78
2023/05/22 01:22:48;;;;;;;46.08;20.52;;;;;;;12.13;98.74;101785.97;6103202;19;20007;-78
2023/05/22 01:25:26;;;;;;;52.15;22.60;;;;;;;12.10;98.98;101780.81;6102797;19;20520;-77
2023/05/22 01:27:52;;;;;;;58.55;24.27;;;;;;;12.08;99.23;101787.91;6091225;19;20261;-77
2023/05/22 01:30:12;;;;;;;51.70;24.70;;;;;;;12.08;99.24;101785.25;6106179;19;20007;-78
2023/05/22 01:32:27;;;;;;;53.35;23.63;;;;;;;12.05;99.30;101770.41;6111965;19;20014;-77
2023/05/22 01:34:38;;;;;;;58.72;25.42;;;;;;;12.08;98.84;101759.81;6105131;19;20467;-77
2023/05/22 01:36:46;;;;;;;60.13;25.92;;;;;;;12.12;98.92;101765.81;6092347;19;20010;-78
2023/05/22 01:38:57;;;;;;;69.68;28.60;;;;;;;12.08;99.26;101770.34;6103363;19;20007;-79
2023/05/22 01:41:06;;;;;;;63.72;24.88;;;;;;;12.07;99.48;101763.34;6078940;19;20022;-77
2023/05/22 01:43:20;;;;;;;61.22;27.25;;;;;;;12.05;99.57;101765.16;6102824;19;20010;-77
2023/05/22 01:45:26;;;;;;;59.22;26.00;;;;;;;12.08;99.31;101762.44;6101501;19;20006;-78
2023/05/22 01:47:34;;;;;;;56.30;26.83;;;;;;;12.08;99.40;101748.38;6099582;19;20011;-79
2023/05/22 01:49:39;;;;;;;61.42;26.25;;;;;;;12.10;99.27;101738.66;6104081;19;20022;-80
2023/05/22 01:51:54;;;;;;;59.88;26.30;;;;;;;12.10;99.04;101735.16;6083643;19;20017;-79
2023/05/22 01:54:05;;;;;;;58.90;25.58;;;;;;;12.09;99.35;101742.22;6095994;19;20006;-79
2023/05/22 01:56:18;;;;;;;59.13;26.83;;;;;;;12.08;99.54;101729.94;6101190;19;20018;-79
2023/05/22 01:58:30;;;;;;;59.03;26.42;;;;;;;12.07;99.83;101730.88;6102755;19;20033;-79
2023/05/22 02:00:36;;;;;;;53.97;24.77;;;;;;;12.09;99.33;101736.94;6103166;19;20306;-79
2023/05/22 02:02:49;;;;;;;65.93;24.63;;;;;;;12.11;99.40;101737.75;6094549;19;20384;-79
2023/05/22 02:05:04;;;;;;;54.53;23.00;;;;;;;12.11;99.03;101727.19;6104952;19;20020;-79
2023/05/22 02:07:13;;;;;;;48.15;24.25;;;;;;;12.08;99.04;101725.56;6105381;19;20028;-78
2023/05/22 02:09:31;;;;;;;57.70;26.33;;;;;;;12.04;99.84;101718.66;6104909;19;20015;-79
2023/05/22 02:11:39;;;;;;;49.92;23.67;;;;;;;12.08;99.22;101719.41;6103920;19;20006;-79
2023/05/22 02:13:46;;;;;;;61.78;25.25;;;;;;;12.07;99.44;101728.22;6105190;19;20003;-79
2023/05/22 02:15:54;;;;;;;58.78;23.02;;;;;;;12.08;99.84;101724.66;6098591;19;20007;-79
2023/05/22 02:18:11;;;;;;;54.22;22.95;;;;;;;12.05;99.73;101725.63;6103642;19;20018;-78
2023/05/22 02:20:23;;;;;;;51.97;22.08;;;;;;;12.10;99.23;101724.63;6106440;19;20083;-79
2023/05/22 02:22:30;;;;;;;54.22;22.30;;;;;;;12.11;99.61;101711.38;6106325;19;20015;-77
2023/05/22 02:24:36;;;;;;;47.10;22.38;;;;;;;12.10;99.14;101714.94;6104150;19;20014;-80
2023/05/22 02:26:41;;;;;;;47.80;21.17;;;;;;;12.12;99.08;101723.69;6081243;19;20668;-78
2023/05/22 02:28:47;;;;;;;49.67;22.52;;;;;;;12.12;99.20;101721.03;6097690;19;20737;-78
2023/05/22 02:30:54;;;;;;;54.22;23.13;;;;;;;12.07;99.30;101718.53;6100396;19;20007;-80
2023/05/22 02:33:08;;;;;;;51.55;22.88;;;;;;;12.07;99.07;101707.16;6099209;19;20550;-80
2023/05/22 02:35:13;;;;;;;58.50;23.83;;;;;;;12.08;99.25;101708.88;6099930;19;20006;-78
2023/05/22 02:37:19;;;;;;;52.70;22.60;;;;;;;12.07;99.19;101708.00;6095472;19;20023;-77
2023/05/22 02:39:26;;;;;;;47.67;20.35;;;;;;;12.08;98.87;101711.50;6097840;19;20006;-78
2023/05/22 02:41:32;;;;;;;57.15;23.42;;;;;;;12.07;99.34;101709.78;6094346;19;20574;-78
2023/05/22 02:43:42;;;;;;;48.53;22.10;;;;;;;12.07;99.09;101712.41;6090028;19;20021;-79
2023/05/22 02:45:47;;;;;;;49.80;23.00;;;;;;;12.05;99.14;101711.59;6091533;19;20022;-77
2023/05/22 02:47:55;;;;;;;47.58;22.02;;;;;;;12.07;99.30;101718.53;6098351;19;20059;-78
2023/05/22 02:50:03;;;;;;;51.08;22.83;;;;;;;12.08;99.03;101719.41;6092009;19;20466;-78
2023/05/22 02:52:08;;;;;;;51.90;22.70;;;;;;;12.08;99.38;101715.03;6094500;19;20006;-79
2023/05/22 02:54:14;;;;;;;54.55;24.30;;;;;;;12.06;99.12;101719.47;6095451;19;20015;-79
2023/05/22 02:56:29;;;;;;;50.97;23.73;;;;;;;12.04;99.29;101709.91;6098534;19;20002;-79
2023/05/22 02:58:34;;;;;;;46.72;22.90;;;;;;;12.02;99.16;101709.94;6096275;19;20007;-79
2023/05/22 03:00:44;;;;;;;48.88;22.13;;;;;;;12.00;99.66;101713.53;6093787;19;20521;-78
2023/05/22 03:02:50;;;;;;;48.60;23.27;;;;;;;11.98;99.28;101707.44;6098370;19;20038;-75
2023/05/22 03:04:57;;;;;;;57.05;23.23;;;;;;;11.98;98.99;101715.34;6093817;19;20616;-78
2023/05/22 03:07:07;;;;;;;38.55;21.00;;;;;;;11.96;99.12;101711.91;6086253;19;20021;-78
2023/05/22 03:09:14;;;;;;;53.38;22.48;;;;;;;11.98;98.95;101717.97;6094569;19;20042;-77
2023/05/22 03:11:25;;;;;;;50.28;23.17;;;;;;;12.05;99.05;101727.41;6091342;19;20039;-79
2023/05/22 03:13:34;;;;;;;47.95;20.85;;;;;;;12.07;98.83;101729.09;6099374;19;20007;-77
2023/05/22 03:15:40;;;;;;;46.92;20.15;;;;;;;12.11;98.94;101740.38;6090621;19;20027;-79
2023/05/22 03:17:45;;;;;;;51.95;20.85;;;;;;;12.14;98.91;101734.16;6087497;19;20074;-79
2023/05/22 03:19:51;;;;;;;45.15;22.50;;;;;;;12.09;99.30;101715.88;6093879;19;20489;-79
2023/05/22 03:21:56;;;;;;;49.53;22.23;;;;;;;12.10;98.87;101728.13;6091453;19;20011;-79
2023/05/22 03:24:04;;;;;;;46.80;21.92;;;;;;;12.11;99.26;101735.09;6098538;19;20106;-78
2023/05/22 03:26:10;;;;;;;59.42;22.13;;;;;;;12.12;99.06;101731.56;6098671;19;20028;-78
2023/05/22 03:28:17;;;;;;;51.08;22.45;;;;;;;12.08;98.92;101722.03;6100136;19;20940;-79
2023/05/22 03:30:26;;;;;;;48.67;21.20;;;;;;;11.99;98.58;101709.19;6100573;19;20361;-79
2023/05/22 03:32:36;;;;;;;39.67;21.20;;;;;;;12.11;99.09;101715.81;6097528;19;20052;-80
2023/05/22 03:34:44;;;;;;;42.08;21.08;;;;;;;12.14;98.83;101713.06;6097633;19;20014;-79
2023/05/22 03:36:50;;;;;;;45.72;23.10;;;;;;;12.10;98.88;101707.03;6099197;19;20041;-78
2023/05/22 03:38:57;;;;;;;46.75;22.15;;;;;;;12.13;98.73;101714.84;6099759;19;20007;-77
2023/05/22 03:41:06;;;;;;;42.58;20.02;;;;;;;12.15;98.96;101715.66;6078383;19;20003;-78
2023/05/22 03:43:13;;;;;;;63.20;23.77;;;;;;;12.21;99.22;101720.72;6101218;19;20479;-77
2023/05/22 03:45:20;;;;;;;49.53;23.23;;;;;;;12.19;99.02;101719.94;6101720;19;20037;-78
2023/05/22 03:47:26;;;;;;;62.58;24.73;;;;;;;12.22;99.14;101714.56;6104487;19;20010;-77
2023/05/22 03:49:31;;;;;;;40.22;21.08;;;;;;;12.27;99.04;101714.41;6099561;19;20010;-78
2023/05/22 03:51:44;;;;;;;53.95;21.33;;;;;;;12.28;99.15;101711.69;6103530;19;20364;-80
2023/05/22 03:53:50;;;;;;;;;;;;;;;12.33;98.80;101710.69;6096074;19;20010;-78
2023/05/22 03:55:56;;;;;;;50.13;21.50;;;;;;;12.33;98.72;101710.69;6100518;19;20333;-78
2023/05/22 03:58:06;;;;;;;51.42;20.80;;;;;;;12.35;98.80;101707.09;6101048;19;20070;-79
2023/05/22 04:00:18;;;;;;;54.90;24.38;;;;;;;12.37;98.74;101710.53;6098832;19;20073;-78
2023/05/22 04:02:25;;;;;;;57.90;21.63;;;;;;;12.38;99.01;101714.91;6098779;19;20484;-79
2023/05/22 04:04:45;;;;;;;52.28;22.48;;;;;;;12.44;98.57;101719.09;6103041;19;20030;-79
2023/05/22 04:06:52;;;;;;;54.17;23.08;;;;;;;12.42;98.75;101708.59;6099474;19;20114;-78
2023/05/22 04:08:59;;;;;;;67.07;26.08;;;;;;;12.43;98.72;101712.97;6092285;19;20006;-79
2023/05/22 04:11:04;;;;;;;64.07;24.40;;;;;;;12.40;98.95;101713.06;6100095;19;20074;-79
2023/05/22 04:13:12;;;;;;;58.20;23.40;;;;;;;12.42;98.74;101705.09;6100916;19;20041;-79
2023/05/22 04:15:27;;;;;;;52.35;24.80;;;;;;;12.42;98.77;101718.28;6101448;19;20006;-78
2023/05/22 04:17:35;;;;;;;55.63;21.77;;;;;;;12.44;98.78;101711.19;6099584;19;20002;-79
2023/05/22 04:19:47;;;;;;;61.65;21.92;;;;;;;12.45;98.80;101719.06;6100915;19;20006;-79
2023/05/22 04:22:01;;;;;;;63.00;22.77;;;;;;;12.45;98.80;101718.16;6098266;19;20036;-78
2023/05/22 04:24:09;;;;;;;52.95;21.42;;;;;;;12.50;98.72;101713.59;6093243;19;20539;-78
2023/05/22 04:26:19;;;;;;;54.10;24.02;;;;;;;12.52;98.50;101711.78;6101518;19;20094;-79
2023/05/22 04:28:29;;;;;;;55.35;22.90;;;;;;;12.51;98.56;101713.56;6099721;19;20075;-78
2023/05/22 04:30:38;;;;;;;47.25;20.58;;;;;;;12.59;98.33;101715.09;6100790;19;20082;-78
2023/05/22 04:32:46;;;;;;;57.22;23.30;;;;;;;12.56;98.29;101723.97;6100396;19;20105;-79
2023/05/22 04:34:57;;;;;;;69.50;24.85;;;;;;;12.59;98.65;101725.63;6100052;19;20483;-78
2023/05/22 04:37:02;;;;;;;54.75;21.70;;;;;;;12.62;98.42;101721.09;6098311;19;20466;-79
2023/05/22 04:39:09;;;;;;;53.67;22.25;;;;;;;12.64;98.08;101723.69;6093722;19;20010;-79
2023/05/22 04:41:16;;;;;;;60.47;21.83;;;;;;;12.64;98.06;101729.81;6094903;19;20010;-77
2023/05/22 04:43:33;;;;;;;51.22;21.65;;;;;;;12.66;97.83;101722.69;6102712;19;20042;-79
2023/05/22 04:45:41;;;;;;;58.40;22.58;;;;;;;12.60;98.04;101724.69;6096501;19;20031;-78
2023/05/22 04:47:46;;;;;;;49.22;20.50;;;;;;;12.62;97.94;101723.72;6085792;19;20237;-77
2023/05/22 04:49:53;;;;;;;43.53;19.83;;;;;;;12.70;97.86;101726.97;6096384;19;20018;-79
2023/05/22 04:52:04;;;;;;;50.17;20.85;;;;;;;12.67;97.56;101723.59;6096736;19;20606;-78
2023/05/22 04:54:12;;;;;;;42.50;21.48;;;;;;;12.74;97.65;101731.22;6091234;19;20030;-78
2023/05/22 04:56:18;;;;;;;51.22;20.25;;;;;;;12.83;97.49;101729.19;6093914;19;20002;-78
2023/05/22 04:58:39;;;;;;;46.38;19.80;;;;;;;12.89;96.98;101727.16;6098087;19;20010;-79
2023/05/22 05:00:56;;;;;;;50.22;21.17;;;;;;;12.90;96.99;101720.09;6096023;19;20427;-78
2023/05/22 05:03:02;;;;;;;47.90;21.23;;;;;;;12.90;97.03;101725.38;6096075;19;20020;-79
2023/05/22 05:05:08;;;;;;;57.25;21.80;;;;;;;12.93;96.88;101725.28;6098988;19;20010;-79
2023/05/22 05:07:17;;;;;;;50.15;22.73;;;;;;;12.91;96.96;101730.63;6096880;19;20660;-78
2023/05/22 05:09:23;;;;;;;59.53;22.58;;;;;;;12.94;96.33;101730.50;6107990;19;20078;-79
2023/05/22 05:11:33;;;;;;;51.03;21.30;;;;;;;13.02;95.94;101724.94;6110970;19;20344;-78
2023/05/22 05:13:41;;;;;;;51.65;22.85;;;;;;;12.97;96.13;101721.59;6112540;19;20030;-78
2023/05/22 05:15:50;;;;;;;48.80;21.58;;;;;;;13.07;95.74;101735.34;6111441;19;20400;-78
2023/05/22 05:18:00;;;;;;;52.72;21.25;;;;;;;13.21;95.93;101737.47;6111694;19;20086;-78
2023/05/22 05:20:07;;;;;;;42.35;20.00;;;;;;;13.32;95.12;101737.94;6112029;19;20006;-79
2023/05/22 05:22:17;;;;;;;49.28;22.58;;;;;;;13.24;94.80;101738.19;6111971;19;20003;-79
2023/05/22 05:24:24;;;;;;;58.90;21.15;;;;;;;13.10;95.32;101740.50;6109594;19;20042;-79
2023/05/22 05:26:33;;;;;;;47.88;22.83;;;;;;;13.14;95.25;101745.63;6111688;19;20011;-79
2023/05/22 05:28:41;;;;;;;54.88;22.30;;;;;;;13.08;95.33;101737.91;6104945;19;20022;-79
2023/05/22 05:30:50;;;;;;;46.13;20.20;;;;;;;13.21;95.70;101750.66;6101089;19;20104;-79
2023/05/22 05:32:58;;;;;;;47.58;20.40;;;;;;;13.26;95.60;101744.31;6102038;19;20014;-78
2023/05/22 05:35:03;;;;;;;48.92;21.23;;;;;;;13.20;94.90;101744.53;6104469;19;20759;-79
2023/05/22 05:37:11;;;;;;;50.85;20.27;;;;;;;13.27;95.52;101746.06;6104353;19;20010;-80
2023/05/22 05:39:17;;;;;;;50.67;20.17;;;;;;;13.24;95.25;101743.47;6101649;19;20066;-79
2023/05/22 05:41:26;;;;;;;59.85;23.48;;;;;;;13.29;95.47;101741.56;6104412;19;20091;-78
2023/05/22 05:43:36;;;;;;;55.75;21.50;;;;;;;13.24;95.55;101750.53;6101034;19;20010;-79
2023/05/22 05:45:48;;;;;;;56.58;23.65;;;;;;;13.33;95.46;101740.53;6099693;19;20014;-79
2023/05/22 05:47:57;;;;;;;57.42;23.15;;;;;;;13.38;95.33;101743.88;6103690;19;20006;-80
2023/05/22 05:50:05;;;;;;;57.15;22.73;;;;;;;13.33;94.71;101750.25;6097940;19;20125;-79
2023/05/22 05:52:13;;;;;;;57.88;21.50;;;;;;;13.33;95.10;101764.31;6102990;19;20103;-79
2023/05/22 05:54:20;;;;;;;60.95;22.95;;;;;;;13.34;94.61;101766.00;6092813;19;20423;-79
2023/05/22 05:56:27;;;;;;;53.17;22.25;;;;;;;13.44;94.96;101761.25;6107511;19;20014;-79
2023/05/22 05:58:34;;;;;;;61.45;21.58;;;;;;;13.52;94.81;101764.47;6098069;19;20110;-79
2023/05/22 06:00:50;;;;;;;55.88;22.15;;;;;;;13.70;94.41;101760.25;6105431;19;20090;-79
2023/05/22 06:03:00;;;;;;;61.85;23.83;;;;;;;13.81;93.85;101759.84;6099201;19;20018;-79
2023/05/22 06:05:07;;;;;;;52.80;23.27;;;;;;;13.89;93.32;101757.75;6102915;19;20096;-79
2023/05/22 06:07:15;;;;;;;59.88;26.65;;;;;;;13.98;92.94;101760.03;6103473;19;20098;-80
2023/05/22 06:09:26;;;;;;;63.55;27.05;;;;;;;14.13;92.06;101760.34;6106015;19;20035;-79
2023/05/22 06:11:32;;;;;;;53.45;24.73;;;;;;;14.29;92.38;101769.34;6100886;19;20011;-79
2023/05/22 06:13:38;;;;;;;62.97;26.73;;;;;;;14.76;91.07;101769.16;6101917;19;20011;-79
2023/05/22 06:15:43;;;;;;;59.60;26.50;;;;;;;14.90;89.50;101772.09;6104680;19;20417;-79
2023/05/22 06:17:49;;;;;;;64.90;26.88;;;;;;;14.83;89.37;101775.94;6097940;19;20451;-79
2023/05/22 06:19:59;;;;;;;53.72;23.20;;;;;;;14.83;89.30;101778.56;6098564;19;20014;-79
2023/05/22 06:22:04;;;;;;;51.47;23.98;;;;;;;14.79;89.36;101774.31;6102836;19;20413;-79
2023/05/22 06:24:09;;;;;;;55.90;22.50;;;;;;;14.77;89.56;101785.91;6103930;19;20018;-79
2023/05/22 06:26:15;;;;;;;49.85;23.67;;;;;;;14.56;89.58;101777.09;6104842;19;20010;-78
2023/05/22 06:28:24;;;;;;;54.85;22.95;;;;;;;14.63;90.27;101767.97;6105305;19;20404;-77
2023/05/22 06:30:33;;;;;;;56.83;23.55;;;;;;;14.77;90.29;101770.03;6106542;19;20015;-79
2023/05/22 06:32:44;;;;;;;59.50;24.05;;;;;;;14.74;90.45;101786.03;6094115;19;20135;-79
2023/05/22 06:34:51;;;;;;;66.35;26.02;;;;;;;14.77;90.13;101778.84;6099438;19;20022;-79
2023/05/22 06:37:00;;;;;;;54.45;24.35;;;;;;;14.85;90.24;101795.25;6103041;19;20010;-79
2023/05/22 06:39:07;;;;;;;55.90;23.70;;;;;;;14.69;90.11;101794.16;6100154;19;20018;-78
2023/05/22 06:41:12;;;;;;;54.33;23.95;;;;;;;14.67;90.34;101785.44;6105310;19;20006;-79
2023/05/22 06:43:23;;;;;;;63.13;25.38;;;;;;;14.73;89.93;101785.19;6107121;19;20030;-79
2023/05/22 06:45:30;;;;;;;59.92;24.92;;;;;;;14.81;90.46;101788.34;6108171;19;20007;-80
2023/05/22 06:47:38;;;;;;;65.47;25.85;;;;;;;14.78;89.99;101788.50;6102204;19;20078;-79
2023/05/22 06:49:44;;;;;;;63.67;25.95;;;;;;;14.81;90.26;101795.44;6099933;19;20010;-79
2023/05/22 06:52:08;;;;;;;59.83;25.08;;;;;;;14.93;89.89;101787.84;6100679;19;20454;-78
2023/05/22 06:54:22;;;;;;;51.97;23.30;;;;;;;15.11;89.76;101788.81;6103677;19;20386;-79
2023/05/22 06:56:27;;;;;;;53.42;23.63;;;;;;;15.07;89.29;101789.00;6104387;19;20047;-79
2023/05/22 06:58:38;;;;;;;49.75;21.67;;;;;;;15.13;88.46;101788.72;6095657;19;20458;-78
2023/05/22 07:00:44;;;;;;;56.47;23.15;;;;;;;15.41;88.90;101785.72;6094038;19;20011;-78
2023/05/22 07:02:51;;;;;;;54.50;23.15;;;;;;;15.70;88.38;101792.34;6095388;19;20086;-78
2023/05/22 07:05:08;;;;;;;50.20;20.38;;;;;;;15.92;87.31;101789.53;6095650;19;20006;-79
2023/05/22 07:07:13;;;;;;;48.30;22.70;;;;;;;16.40;87.15;101787.22;6099594;19;20018;-79
2023/05/22 07:09:23;;;;;;;49.17;22.55;;;;;;;16.38;85.92;101789.97;6103055;19;20341;-79
2023/05/22 07:11:31;;;;;;;50.75;22.50;;;;;;;16.43;84.92;101787.09;6096300;19;20010;-78
2023/05/22 07:13:37;;;;;;;46.75;22.52;;;;;;;16.22;85.13;101787.19;6088239;19;20017;-79
2023/05/22 07:15:42;;;;;;;55.75;23.05;;;;;;;16.34;85.23;101790.16;6096119;19;20014;-79
2023/05/22 07:17:51;;;;;;;45.33;22.17;;;;;;;16.46;85.05;101789.56;6102311;19;20002;-78
2023/05/22 07:19:56;;;;;;;47.92;22.27;;;;;;;16.51;84.29;101790.22;6105891;19;20010;-79
2023/05/22 07:22:03;;;;;;;47.95;21.92;;;;;;;16.68;83.70;101790.19;6093588;19;20014;-78
2023/05/22 07:24:11;;;;;;;54.08;22.30;;;;;;;16.82;83.17;101788.66;6098182;19;20003;-79
2023/05/22 07:26:25;;;;;;;49.55;22.33;;;;;;;16.97;82.63;101792.31;6099541;19;20589;-79
2023/05/22 07:28:37;;;;;;;45.10;21.60;;;;;;;17.10;82.89;101786.28;6103287;19;20024;-78
2023/05/22 07:30:46;;;;;;;50.25;21.27;;;;;;;17.38;81.58;101795.44;6093514;19;20802;-76
2023/05/22 07:32:58;;;;;;;43.78;21.75;;;;;;;17.69;81.37;101794.66;6100886;19;20618;-78
2023/05/22 07:35:03;;;;;;;54.67;23.65;;;;;;;18.02;79.43;101795.53;6094953;19;20009;-77
2023/05/22 07:37:14;;;;;;;45.10;20.17;;;;;;;18.54;79.77;101795.19;6097151;19;20014;-79
2023/05/22 07:39:23;;;;;;;53.92;21.75;;;;;;;18.26;78.21;101794.13;6097277;19;20042;-78
2023/05/22 07:41:33;;;;;;;44.38;21.98;;;;;;;18.75;76.33;101799.28;6098563;19;20010;-79
2023/05/22 07:43:39;;;;;;;37.60;19.80;;;;;;;18.83;75.40;101797.00;6096847;19;20003;-79
2023/05/22 07:45:47;;;;;;;44.15;20.08;;;;;;;19.18;74.00;101815.31;6097586;19;20086;-79
2023/05/22 07:47:55;;;;;;;50.20;22.00;;;;;;;19.07;72.90;101802.66;6096405;19;20020;-78
2023/05/22 07:50:02;;;;;;;46.55;22.23;;;;;;;19.08;74.47;101807.00;6096514;19;20047;-78
2023/05/22 07:52:09;;;;;;;50.53;21.20;;;;;;;19.77;73.22;101804.53;6092510;19;20278;-78
2023/05/22 07:54:14;;;;;;;49.58;21.42;;;;;;;20.16;71.98;101803.78;6095277;19;20056;-78
2023/05/22 07:56:24;;;;;;;49.10;21.08;;;;;;;20.41;70.64;101795.97;6095390;19;20113;-78
2023/05/22 07:58:33;;;;;;;46.40;20.75;;;;;;;19.82;69.70;101785.59;6093667;19;20006;-79
2023/05/22 08:00:38;;;;;;;40.40;19.77;;;;;;;20.27;70.83;101792.38;6099214;19;20010;-79
2023/05/22 08:02:43;;;;;;;44.22;20.70;;;;;;;20.06;68.89;101802.66;6094846;19;20018;-79
2023/05/22 08:04:50;;;;;;;51.35;20.83;;;;;;;19.78;70.44;101800.94;6098492;19;20009;-79
2023/05/22 08:06:56;;;;;;;39.33;19.08;;;;;;;20.29;70.01;101797.63;6093047;19;20014;-78
2023/05/22 08:09:01;;;;;;;43.30;20.65;;;;;;;20.28;68.55;101793.28;6090957;19;20035;-78
2023/05/22 08:11:07;;;;;;;41.17;18.80;;;;;;;20.85;68.17;101794.78;6092180;19;20006;-77
2023/05/22 08:13:14;;;;;;;40.33;20.17;;;;;;;21.21;66.98;101794.06;6090680;19;20014;-77
2023/05/22 08:15:24;;;;;;;37.08;19.48;;;;;;;20.99;66.94;101800.06;6096552;19;20014;-79
2023/05/22 08:17:29;;;;;;;48.25;20.20;;;;;;;20.74;66.06;101795.53;6097588;19;20011;-78
2023/05/22 08:19:35;;;;;;;39.90;20.05;;;;;;;21.00;65.69;101794.59;6097706;19;20026;-77
2023/05/22 08:21:40;;;;;;;40.20;19.55;;;;;;;21.22;67.61;101785.06;6099015;19;20193;-78
2023/05/22 08:23:45;;;;;;;35.85;19.50;;;;;;;21.75;64.62;101790.25;6102996;19;20014;-79
2023/05/22 08:25:51;;;;;;;42.85;18.83;;;;;;;22.25;65.03;101794.59;6104713;19;20018;-79
2023/05/22 08:27:56;;;;;;;38.10;17.00;;;;;;;22.24;64.16;101786.66;6100095;19;20388;-78
2023/05/22 08:30:01;;;;;;;39.33;20.00;;;;;;;22.11;62.86;101787.53;6100551;19;20018;-79
2023/05/22 08:32:10;;;;;;;37.28;17.35;;;;;;;22.53;62.08;101787.16;6100944;19;20015;-79
2023/05/22 08:34:15;;;;;;;39.47;18.65;;;;;;;22.43;62.24;101786.13;6101865;19;20014;-79
2023/05/22 08:36:22;;;;;;;40.08;17.95;;;;;;;22.00;63.34;101779.47;6097919;19;20013;-79
2023/05/22 08:38:27;;;;;;;35.25;17.48;;;;;;;22.88;62.43;101776.41;6101066;19;20428;-77
2023/05/22 08:40:37;;;;;;;31.83;16.92;;;;;;;23.34;61.14;101777.31;6098435;19;20564;-78
2023/05/22 08:42:44;;;;;;;34.35;17.48;;;;;;;23.19;58.85;101776.69;6100664;19;20034;-78
2023/05/22 08:44:50;;;;;;;38.00;18.05;;;;;;;22.77;58.93;101765.66;6106436;19;20014;-78
2023/05/22 08:46:58;;;;;;;30.92;15.75;;;;;;;23.12;60.74;101767.47;6105075;19;20002;-78
2023/05/22 08:49:08;;;;;;;36.45;18.63;;;;;;;23.14;59.29;101770.84;6104352;19;20011;-78
2023/05/22 08:51:17;;;;;;;39.75;18.60;;;;;;;23.33;57.43;101772.91;6097218;19;20018;-79
2023/05/22 08:53:29;;;;;;;37.85;18.55;;;;;;;23.20;58.34;101763.19;6090499;19;20027;-79
2023/05/22 08:55:35;;;;;;;34.80;17.15;;;;;;;23.52;58.14;101762.44;6097920;19;20104;-79
2023/05/22 08:57:44;;;;;;;31.52;15.80;;;;;;;24.17;57.69;101760.72;6100047;19;20018;-77
2023/05/22 08:59:54;;;;;;;34.17;17.13;;;;;;;23.95;57.45;101774.22;6098315;19;20003;-78
2023/05/22 09:02:00;;;;;;;33.65;17.92;;;;;;;23.16;56.90;101774.28;6091540;19;20030;-78
2023/05/22 09:04:09;;;;;;;35.95;17.55;;;;;;;23.17;56.41;101767.91;6098511;19;20274;-78
2023/05/22 09:06:15;;;;;;;35.83;17.48;;;;;;;23.65;56.08;101765.81;6100965;19;20022;-77
2023/05/22 09:08:27;;;;;;;31.92;15.90;;;;;;;24.06;56.09;101766.97;6093967;19;20121;-78
2023/05/22 09:10:34;;;;;;;36.42;18.60;;;;;;;24.19;55.30;101771.31;6097157;19;20010;-79
2023/05/22 09:12:59;;;;;;;38.00;17.95;;;;;;;23.56;56.56;101771.94;6096858;19;20080;-78
2023/05/22 09:15:12;;;;;;;28.67;16.70;;;;;;;23.70;55.08;101772.63;6078105;19;20018;-78
2023/05/22 09:17:19;;;;;;;36.75;17.52;;;;;;;23.79;56.45;101769.25;6093058;19;20021;-79
2023/05/22 09:19:27;;;;;;;28.52;16.98;;;;;;;23.72;55.07;101768.03;6091947;19;20630;-78
2023/05/22 09:21:34;;;;;;;31.42;16.92;;;;;;;23.38;55.10;101778.78;6097762;19;20014;-78
2023/05/22 09:23:41;;;;;;;34.67;17.88;;;;;;;23.87;55.37;101769.47;6093657;19;20388;-78
2023/05/22 09:25:49;;;;;;;44.00;18.17;;;;;;;23.41;56.19;101773.19;6092636;19;20044;-78
2023/05/22 09:27:55;;;;;;;36.90;18.40;;;;;;;23.54;55.93;101779.28;6092954;19;20002;-79
2023/05/22 09:30:00;;;;;;;34.28;16.25;;;;;;;24.15;55.47;101772.56;6092179;19;20007;-78
2023/05/22 09:32:15;;;;;;;27.05;14.98;;;;;;;24.74;55.40;101766.66;6099667;19;20011;-78
2023/05/22 09:34:32;;;;;;;27.42;15.88;;;;;;;23.79;55.85;101772.78;6103564;19;20011;-77
2023/05/22 09:36:38;;;;;;;26.33;13.65;;;;;;;23.87;56.48;101774.84;6099332;19;20568;-77
2023/05/22 09:38:43;;;;;;;28.55;14.88;;;;;;;24.49;53.99;101771.47;6095421;19;20016;-79
2023/05/22 09:40:51;;;;;;;33.90;17.73;;;;;;;23.72;54.60;101765.34;6103535;19;20007;-79
2023/05/22 09:42:56;;;;;;;33.08;15.50;;;;;;;24.45;55.09;101770.00;6099075;19;20003;-80
2023/05/22 09:45:08;;;;;;;31.98;17.30;;;;;;;24.27;52.84;101767.00;6098554;19;20036;-78